Time;durP1;ratioP1;P1;durP2;ratioP2;P2;SDS_P1;SDS_P2;PMS_P1;PMS_P2;Temp;Humidity;BMP_temperature;BMP_pressure;BME280_temperature;BME280_humidity;BME280_pressure;Samples;Min_cycle;Max_cycle;Signal;HPM_P1;HPM_P2
2022/12/09 00:00:29;;;;;;;30.15;17.30;;;-0.80;99.90;;;;;;5114576;28;20204;-61
2022/12/09 00:02:56;;;;;;;33.47;18.17;;;-0.90;99.90;;;;;;5114185;28;20207;-62
2022/12/09 00:05:22;;;;;;;28.50;17.10;;;-0.90;99.90;;;;;;5113950;28;20216;-61
2022/12/09 00:07:49;;;;;;;27.40;16.95;;;-0.90;99.90;;;;;;5114247;28;20199;-62
2022/12/09 00:10:17;;;;;;;31.55;17.63;;;-0.90;99.90;;;;;;5113961;28;20214;-62
2022/12/09 00:12:44;;;;;;;32.45;18.48;;;-0.80;99.90;;;;;;5113923;28;20203;-62
2022/12/09 00:15:11;;;;;;;32.90;17.55;;;-0.90;99.90;;;;;;5113864;28;20226;-62
2022/12/09 00:17:38;;;;;;;35.75;17.83;;;-0.80;99.90;;;;;;5113637;28;20673;-62
2022/12/09 00:20:06;;;;;;;33.08;17.20;;;-0.80;99.90;;;;;;5114007;28;20200;-62
2022/12/09 00:22:33;;;;;;;37.10;18.10;;;-0.80;99.90;;;;;;5113680;28;20673;-61
2022/12/09 00:25:00;;;;;;;34.10;18.83;;;-0.80;99.90;;;;;;5114080;28;20226;-61
2022/12/09 00:27:28;;;;;;;30.33;16.50;;;-0.80;99.90;;;;;;5117807;28;20207;-61
2022/12/09 00:29:54;;;;;;;36.22;17.90;;;-0.80;99.90;;;;;;5118131;28;20217;-62
2022/12/09 00:32:21;;;;;;;32.42;18.20;;;-0.80;99.90;;;;;;5117986;28;20206;-62
2022/12/09 00:34:48;;;;;;;28.52;16.35;;;-0.80;99.90;;;;;;5117801;28;20217;-63
2022/12/09 00:37:15;;;;;;;35.75;18.80;;;-0.80;99.90;;;;;;5117515;28;20219;-62
2022/12/09 00:39:42;;;;;;;32.45;17.63;;;-0.90;99.90;;;;;;5117934;28;20213;-62
2022/12/09 00:42:08;;;;;;;28.10;17.33;;;-0.90;99.90;;;;;;5117845;28;20208;-62
2022/12/09 00:44:36;;;;;;;27.23;16.38;;;-0.90;99.90;;;;;;5117709;28;20209;-61
2022/12/09 00:47:03;;;;;;;31.35;17.48;;;-0.90;99.90;;;;;;5117820;28;20225;-60
2022/12/09 00:49:30;;;;;;;29.52;17.00;;;-1.00;99.90;;;;;;5117620;28;20205;-62
2022/12/09 00:51:57;;;;;;;36.60;18.50;;;-1.00;99.90;;;;;;5117572;28;20208;-62
2022/12/09 00:54:23;;;;;;;30.27;18.35;;;-1.00;99.90;;;;;;5117323;28;20574;-63
2022/12/09 00:56:50;;;;;;;31.35;17.10;;;-1.00;99.90;;;;;;5117552;28;20228;-62
2022/12/09 00:59:17;;;;;;;28.88;17.17;;;-1.00;99.90;;;;;;5117395;28;20200;-61
2022/12/09 01:01:45;;;;;;;31.80;18.85;;;-1.00;99.90;;;;;;5117557;28;20199;-62
2022/12/09 01:04:12;;;;;;;37.05;19.20;;;-1.00;99.90;;;;;;5118234;28;20211;-61
2022/12/09 01:06:39;;;;;;;32.15;19.27;;;-1.00;99.90;;;;;;5117417;28;20228;-62
2022/12/09 01:09:06;;;;;;;32.70;18.13;;;-1.10;99.90;;;;;;5117338;28;20206;-62
2022/12/09 01:11:32;;;;;;;30.20;18.05;;;-1.10;99.90;;;;;;5117744;28;20726;-62
2022/12/09 01:14:01;;;;;;;31.63;17.80;;;-1.10;99.90;;;;;;5117059;28;20665;-61
2022/12/09 01:16:30;;;;;;;34.88;20.67;;;-1.10;99.90;;;;;;5117049;28;20229;-60
2022/12/09 01:19:00;;;;;;;37.45;21.40;;;-1.10;99.90;;;;;;5117323;28;20208;-61
2022/12/09 01:21:28;;;;;;;33.80;19.33;;;-1.10;99.90;;;;;;5117230;28;20189;-62
2022/12/09 01:23:54;;;;;;;35.67;20.40;;;-1.10;99.90;;;;;;5117171;28;20199;-62
2022/12/09 01:26:21;;;;;;;32.10;18.45;;;-1.10;99.90;;;;;;5117034;28;20213;-61
2022/12/09 01:28:51;;;;;;;32.88;18.65;;;-1.10;99.90;;;;;;5117119;28;20209;-61
2022/12/09 01:31:20;;;;;;;34.55;19.50;;;-1.10;99.90;;;;;;5116913;28;20214;-62
2022/12/09 01:33:47;;;;;;;40.83;18.45;;;-1.10;99.90;;;;;;5116892;28;20674;-61
2022/12/09 01:36:18;;;;;;;34.28;17.83;;;-1.10;99.90;;;;;;5116273;28;20251;-61
2022/12/09 01:38:45;;;;;;;40.60;20.00;;;-1.10;99.90;;;;;;5116118;28;20203;-62
2022/12/09 01:41:12;;;;;;;27.73;16.92;;;-1.10;99.90;;;;;;5117025;28;20209;-61
2022/12/09 01:43:40;;;;;;;30.20;17.35;;;-1.10;99.90;;;;;;5119813;28;20207;-61
2022/12/09 01:46:07;;;;;;;36.22;18.88;;;-1.10;99.90;;;;;;5117553;28;20238;-61
2022/12/09 01:48:37;;;;;;;28.95;18.10;;;-1.20;99.90;;;;;;5116693;28;20203;-61
2022/12/09 01:51:10;;;;;;;30.02;18.05;;;-1.20;99.90;;;;;;5116512;28;20200;-61
2022/12/09 01:53:41;;;;;;;39.45;18.20;;;-1.20;99.90;;;;;;5116286;28;20188;-60
2022/12/09 01:56:12;;;;;;;34.85;18.52;;;-1.20;99.90;;;;;;5116292;28;20599;-61
2022/12/09 01:58:39;;;;;;;30.77;17.45;;;-1.20;99.90;;;;;;5116423;28;20185;-61
2022/12/09 02:01:06;;;;;;;30.65;17.75;;;-1.20;99.90;;;;;;5115987;28;20208;-61
2022/12/09 02:03:33;;;;;;;38.83;19.13;;;-1.20;99.90;;;;;;5116658;28;20320;-61
2022/12/09 02:06:00;;;;;;;34.58;17.85;;;-1.20;99.90;;;;;;5115931;28;20245;-61
2022/12/09 02:08:27;;;;;;;32.92;17.85;;;-1.20;99.90;;;;;;5115748;28;20201;-61
2022/12/09 02:11:02;;;;;;;42.63;19.83;;;-1.20;99.90;;;;;;5115939;28;20201;-61
2022/12/09 02:13:36;;;;;;;35.97;18.10;;;-1.20;99.90;;;;;;5115963;28;20199;-61
2022/12/09 02:16:09;;;;;;;36.03;17.88;;;-1.20;99.90;;;;;;5115707;28;20233;-61
2022/12/09 02:18:42;;;;;;;35.85;17.65;;;-1.20;99.90;;;;;;5115627;28;20185;-61
2022/12/09 02:21:11;;;;;;;33.83;17.48;;;-1.20;99.90;;;;;;5115727;28;20205;-61
2022/12/09 02:23:40;;;;;;;32.75;16.85;;;-1.30;99.90;;;;;;5120553;28;20204;-61
2022/12/09 02:26:16;;;;;;;33.72;17.17;;;-1.30;99.90;;;;;;5121552;28;20222;-60
2022/12/09 02:29:15;;;;;;;32.33;18.30;;;-1.30;99.90;;;;;;5118605;28;20196;-61
2022/12/09 02:32:01;;;;;;;61.50;27.63;;;-1.30;99.90;;;;;;5107109;28;20907;-61
2022/12/09 02:34:32;;;;;;;43.80;23.40;;;-1.30;99.90;;;;;;5115811;28;20184;-61
2022/12/09 02:37:06;;;;;;;42.72;20.83;;;-1.30;99.90;;;;;;5115519;28;20234;-60
2022/12/09 02:39:38;;;;;;;33.45;17.80;;;-1.30;99.90;;;;;;5115763;28;20188;-61
2022/12/09 02:42:08;;;;;;;35.60;17.90;;;-1.30;99.90;;;;;;5116594;28;20195;-60
2022/12/09 02:44:36;;;;;;;36.80;17.90;;;-1.30;99.90;;;;;;5116007;28;20200;-61
2022/12/09 02:47:04;;;;;;;40.50;18.42;;;-1.30;99.90;;;;;;5116102;28;20223;-60
2022/12/09 02:49:34;;;;;;;36.45;18.70;;;-1.30;99.90;;;;;;5114659;28;20581;-60
2022/12/09 02:52:03;;;;;;;61.20;26.65;;;-1.30;99.90;;;;;;5115295;28;20446;-61
2022/12/09 02:54:32;;;;;;;50.97;22.77;;;-1.30;99.90;;;;;;5117980;28;20674;-62
2022/12/09 02:57:04;;;;;;;38.97;18.23;;;-1.40;99.90;;;;;;5120357;28;20223;-61
2022/12/09 02:59:31;;;;;;;38.20;19.20;;;-1.40;99.90;;;;;;5125060;28;20192;-60
2022/12/09 03:02:18;;;;;;;66.57;28.42;;;-1.40;99.90;;;;;;5122826;28;20416;-60
2022/12/09 03:04:54;;;;;;;50.13;22.13;;;-1.40;99.90;;;;;;5123183;28;20186;-60
2022/12/09 03:07:28;;;;;;;67.90;29.48;;;-1.40;99.90;;;;;;5118672;28;20772;-61
2022/12/09 03:10:02;;;;;;;80.28;30.40;;;-1.40;99.90;;;;;;5116352;28;20412;-61
2022/12/09 03:12:32;;;;;;;53.92;24.30;;;-1.40;99.90;;;;;;5119394;28;20186;-61
2022/12/09 03:15:02;;;;;;;65.15;29.23;;;-1.40;99.90;;;;;;5120429;28;20415;-62
2022/12/09 03:17:32;;;;;;;53.83;22.95;;;-1.40;99.90;;;;;;5118416;28;20185;-62
2022/12/09 03:20:06;;;;;;;64.57;28.80;;;-1.40;99.90;;;;;;5118229;28;20412;-63
2022/12/09 03:22:35;;;;;;;55.63;23.83;;;-1.40;99.90;;;;;;5122456;28;20195;-61
2022/12/09 03:25:06;;;;;;;48.80;19.73;;;-1.50;99.90;;;;;;5125058;28;20224;-61
2022/12/09 03:27:36;;;;;;;66.70;28.70;;;-1.50;99.90;;;;;;5126315;28;20436;-60
2022/12/09 03:30:05;;;;;;;73.85;29.83;;;-1.50;99.90;;;;;;5127147;28;20412;-61
2022/12/09 03:32:33;;;;;;;49.65;23.08;;;-1.50;99.90;;;;;;5128476;28;20475;-61
2022/12/09 03:35:07;;;;;;;49.05;20.88;;;-1.50;99.90;;;;;;5127753;28;20227;-61
2022/12/09 03:37:35;;;;;;;39.40;18.92;;;-1.50;99.90;;;;;;5123529;28;20186;-61
2022/12/09 03:40:03;;;;;;;50.20;19.90;;;-1.60;99.90;;;;;;5120582;28;20206;-60
2022/12/09 03:42:36;;;;;;;40.20;18.60;;;-1.60;99.90;;;;;;5120410;28;20201;-61
2022/12/09 03:45:08;;;;;;;42.47;20.13;;;-1.60;99.90;;;;;;5120384;28;20247;-61
2022/12/09 03:47:35;;;;;;;40.05;20.70;;;-1.60;99.90;;;;;;5119231;28;20185;-61
2022/12/09 03:50:05;;;;;;;45.40;19.45;;;-1.60;99.90;;;;;;5118036;28;20292;-61
2022/12/09 03:52:37;;;;;;;40.05;18.70;;;-1.60;99.90;;;;;;5116797;28;20206;-61
2022/12/09 03:55:10;;;;;;;36.38;17.75;;;-1.60;99.90;;;;;;5117159;28;20245;-61
2022/12/09 03:57:42;;;;;;;41.08;18.42;;;-1.60;99.90;;;;;;5117506;28;20197;-61
2022/12/09 04:00:09;;;;;;;43.85;19.00;;;-1.60;99.90;;;;;;5117162;28;20185;-61
2022/12/09 04:02:37;;;;;;;40.65;17.38;;;-1.60;99.90;;;;;;5117220;28;20196;-61
2022/12/09 04:05:06;;;;;;;40.78;17.52;;;-1.60;99.90;;;;;;5116024;28;20588;-60
2022/12/09 04:10:55;;;;;;;39.13;18.20;;;-1.70;99.90;;;;;;5112799;27;20476;-61
2022/12/09 04:13:22;;;;;;;47.55;20.83;;;-1.70;99.90;;;;;;5112648;28;20223;-60
2022/12/09 04:15:48;;;;;;;39.70;19.42;;;-1.70;99.90;;;;;;5111735;28;20591;-59
2022/12/09 04:18:15;;;;;;;45.53;18.85;;;-1.70;99.90;;;;;;5112595;28;20200;-61
2022/12/09 04:20:42;;;;;;;48.15;19.48;;;-1.70;99.90;;;;;;5111575;28;20663;-61
2022/12/09 04:23:09;;;;;;;40.20;17.05;;;-1.80;99.90;;;;;;5110990;28;20294;-61
2022/12/09 04:25:37;;;;;;;40.20;19.50;;;-1.80;99.90;;;;;;5111245;28;20233;-62
2022/12/09 04:28:05;;;;;;;41.40;19.02;;;-1.80;99.90;;;;;;5111223;28;20201;-61
2022/12/09 04:30:32;;;;;;;41.00;17.55;;;-1.70;99.90;;;;;;5110913;28;20245;-60
2022/12/09 04:32:59;;;;;;;40.58;18.38;;;-1.70;99.90;;;;;;5110799;28;20664;-60
2022/12/09 04:35:26;;;;;;;38.83;16.77;;;-1.70;99.90;;;;;;5135914;22;20697;-61
2022/12/09 04:37:53;;;;;;;44.05;18.77;;;-1.70;99.90;;;;;;5110126;28;20222;-61
2022/12/09 04:40:20;;;;;;;42.30;18.92;;;-1.70;99.90;;;;;;5111121;28;20204;-60
2022/12/09 04:42:47;;;;;;;52.13;19.65;;;-1.70;99.90;;;;;;5110607;28;20199;-61
2022/12/09 04:45:15;;;;;;;40.50;18.80;;;-1.70;99.90;;;;;;5110758;28;20198;-59
2022/12/09 04:47:42;;;;;;;36.72;17.75;;;-1.80;99.90;;;;;;5110440;28;20231;-61
2022/12/09 04:50:09;;;;;;;51.03;18.33;;;-1.70;99.90;;;;;;5110901;28;20224;-60
2022/12/09 04:52:36;;;;;;;48.30;21.05;;;-1.80;99.90;;;;;;5110000;28;20211;-60
2022/12/09 04:55:02;;;;;;;32.92;18.05;;;-1.80;99.90;;;;;;5110508;28;20301;-60
2022/12/09 04:57:29;;;;;;;37.65;17.65;;;-1.70;99.90;;;;;;5110744;28;20231;-61
2022/12/09 04:59:56;;;;;;;37.55;18.60;;;-1.70;99.90;;;;;;5110137;28;20200;-60
2022/12/09 05:02:24;;;;;;;37.35;17.48;;;-1.70;99.90;;;;;;5110077;28;20216;-59
2022/12/09 05:04:51;;;;;;;43.28;19.63;;;-1.70;99.90;;;;;;5110269;28;20200;-61
2022/12/09 05:07:18;;;;;;;44.95;21.10;;;-1.70;99.90;;;;;;5110548;28;20224;-59
2022/12/09 05:09:44;;;;;;;42.08;19.70;;;-1.70;99.90;;;;;;5110109;28;20251;-61
2022/12/09 05:12:11;;;;;;;39.03;21.02;;;-1.70;99.90;;;;;;5109633;28;20198;-61
2022/12/09 05:14:38;;;;;;;35.70;19.25;;;-1.70;99.90;;;;;;5110084;28;20214;-61
2022/12/09 05:17:06;;;;;;;41.45;20.40;;;-1.70;99.90;;;;;;5109794;28;20310;-61
2022/12/09 05:19:34;;;;;;;39.17;19.55;;;-1.70;99.90;;;;;;5109807;28;20199;-61
2022/12/09 05:22:00;;;;;;;44.08;21.05;;;-1.80;99.90;;;;;;5097650;28;20203;-61
2022/12/09 05:24:27;;;;;;;45.72;19.20;;;-1.80;99.90;;;;;;5095958;28;20702;-60
2022/12/09 05:26:54;;;;;;;42.67;19.70;;;-1.80;99.90;;;;;;5096227;28;20223;-60
2022/12/09 05:29:20;;;;;;;44.92;20.35;;;-1.90;99.90;;;;;;5095801;28;20720;-61
2022/12/09 05:31:47;;;;;;;39.75;19.17;;;-1.90;99.90;;;;;;5096234;28;20205;-61
2022/12/09 05:34:14;;;;;;;43.95;18.95;;;-1.90;99.90;;;;;;5096652;28;20202;-60
2022/12/09 05:36:42;;;;;;;39.33;19.13;;;-2.00;99.90;;;;;;5096234;28;20234;-61
2022/12/09 05:39:09;;;;;;;39.40;19.17;;;-2.00;99.90;;;;;;5096066;28;20204;-61
2022/12/09 05:41:36;;;;;;;37.97;18.20;;;-1.90;99.90;;;;;;5096219;28;20210;-60
2022/12/09 05:44:03;;;;;;;43.75;20.13;;;-1.90;99.90;;;;;;5095862;28;20209;-61
2022/12/09 05:46:29;;;;;;;36.25;18.80;;;-1.90;99.90;;;;;;5096047;28;20229;-59
2022/12/09 05:48:56;;;;;;;40.05;17.83;;;-1.90;99.90;;;;;;5096083;28;20238;-60
2022/12/09 05:51:25;;;;;;;37.78;17.83;;;-1.90;99.90;;;;;;5096159;28;20208;-60
2022/12/09 05:53:53;;;;;;;49.83;21.02;;;-2.00;99.90;;;;;;5096122;28;20198;-61
2022/12/09 05:56:22;;;;;;;35.67;16.40;;;-2.00;99.90;;;;;;5096984;28;20221;-61
2022/12/09 05:58:49;;;;;;;43.83;19.50;;;-2.00;99.90;;;;;;5097244;28;20252;-61
2022/12/09 06:01:17;;;;;;;35.67;17.15;;;-2.00;99.90;;;;;;5096159;28;20674;-61
2022/12/09 06:03:46;;;;;;;44.65;18.42;;;-2.00;99.90;;;;;;5096547;28;20201;-60
2022/12/09 06:06:16;;;;;;;44.28;19.27;;;-2.00;99.90;;;;;;5097047;28;20227;-60
2022/12/09 06:08:43;;;;;;;36.92;17.85;;;-2.00;99.90;;;;;;5096732;28;20206;-62
2022/12/09 06:11:14;;;;;;;37.80;18.45;;;-2.00;99.90;;;;;;5097153;28;20237;-61
2022/12/09 06:13:41;;;;;;;45.67;19.35;;;-2.00;99.90;;;;;;5097067;28;20197;-60
2022/12/09 06:16:09;;;;;;;47.55;19.85;;;-2.00;99.90;;;;;;5096970;28;20228;-62
2022/12/09 06:18:37;;;;;;;43.65;18.75;;;-2.00;99.90;;;;;;5096690;28;20297;-58
2022/12/09 06:21:05;;;;;;;45.85;19.30;;;-2.00;99.90;;;;;;5096493;28;20199;-60
2022/12/09 06:23:32;;;;;;;48.20;19.00;;;-2.00;99.90;;;;;;5096273;28;20205;-61
2022/12/09 06:25:59;;;;;;;48.50;17.50;;;-2.00;99.90;;;;;;5096085;28;20229;-60
2022/12/09 06:28:27;;;;;;;34.88;17.95;;;-2.00;99.90;;;;;;5096433;28;20225;-60
2022/12/09 06:30:54;;;;;;;39.70;17.40;;;-2.00;99.90;;;;;;5095597;28;20689;-60
2022/12/09 06:33:21;;;;;;;35.55;18.27;;;-2.00;99.90;;;;;;5095855;28;20660;-61
2022/12/09 06:35:47;;;;;;;39.58;19.98;;;-2.00;99.90;;;;;;5091586;28;20708;-61
2022/12/09 06:38:14;;;;;;;44.42;18.23;;;-2.00;99.90;;;;;;5094791;28;20206;-59
2022/12/09 06:40:41;;;;;;;33.10;17.63;;;-1.90;99.90;;;;;;5094865;28;20208;-60
2022/12/09 06:43:08;;;;;;;41.08;18.75;;;-1.90;99.90;;;;;;5095948;28;20197;-60
2022/12/09 06:45:37;;;;;;;45.03;19.15;;;-1.90;99.90;;;;;;5095174;28;20212;-60
2022/12/09 06:48:04;;;;;;;40.60;18.73;;;-1.80;99.90;;;;;;5095648;28;20213;-61
2022/12/09 06:50:31;;;;;;;44.67;20.15;;;-1.80;99.90;;;;;;5096552;28;20225;-60
2022/12/09 06:52:58;;;;;;;37.70;17.35;;;-1.70;99.90;;;;;;5096369;28;20208;-60
2022/12/09 06:55:25;;;;;;;70.10;29.25;;;-1.70;99.90;;;;;;5093014;28;20525;-59
2022/12/09 06:57:52;;;;;;;69.50;29.35;;;-1.70;99.90;;;;;;5095237;28;20904;-59
2022/12/09 07:00:19;;;;;;;52.90;24.13;;;-1.80;99.90;;;;;;5096859;28;20696;-61
2022/12/09 07:02:47;;;;;;;68.95;27.70;;;-1.80;99.90;;;;;;5090471;28;20456;-59
2022/12/09 07:05:14;;;;;;;57.70;24.58;;;-1.80;99.90;;;;;;5089060;28;20578;-59
2022/12/09 07:07:41;;;;;;;64.13;29.15;;;-1.80;99.90;;;;;;5095329;28;20410;-61
2022/12/09 07:10:09;;;;;;;56.13;24.45;;;-1.70;99.90;;;;;;5096754;28;20251;-59
2022/12/09 07:12:36;;;;;;;62.08;28.13;;;-1.70;99.90;;;;;;5095185;28;20410;-59
2022/12/09 07:15:03;;;;;;;59.40;28.00;;;-1.70;99.90;;;;;;5094921;28;20414;-59
2022/12/09 07:17:29;;;;;;;51.10;21.33;;;-1.70;99.90;;;;;;5095491;28;20314;-59
2022/12/09 07:19:58;;;;;;;46.58;21.13;;;-1.70;99.90;;;;;;5094855;28;20273;-60
2022/12/09 07:22:24;;;;;;;55.03;25.87;;;-1.60;99.90;;;;;;5094715;28;20410;-59
2022/12/09 07:24:51;;;;;;;50.63;22.48;;;-1.50;99.90;;;;;;5094438;28;20461;-60
2022/12/09 07:27:18;;;;;;;49.10;25.20;;;-1.40;99.90;;;;;;5093601;28;20410;-60
2022/12/09 07:29:45;;;;;;;48.47;25.25;;;-1.30;99.90;;;;;;5093622;28;20428;-60
2022/12/09 07:32:12;;;;;;;46.53;24.95;;;-1.20;99.90;;;;;;5092468;28;20910;-60
2022/12/09 07:34:39;;;;;;;45.42;22.30;;;-1.10;99.90;;;;;;5095104;28;20207;-60
2022/12/09 07:37:07;;;;;;;41.88;20.60;;;-1.00;99.90;;;;;;5094680;28;20236;-60
2022/12/09 07:39:34;;;;;;;35.50;18.75;;;-0.90;99.90;;;;;;5095469;28;20203;-60
2022/12/09 07:42:01;;;;;;;38.28;19.00;;;-0.80;99.90;;;;;;5095120;28;20197;-60
2022/12/09 07:44:27;;;;;;;39.33;19.30;;;-0.80;99.90;;;;;;5094838;28;20203;-59
2022/12/09 07:46:55;;;;;;;43.40;19.75;;;-0.70;99.90;;;;;;5091985;28;20220;-56
2022/12/09 07:49:22;;;;;;;45.00;19.88;;;-0.70;99.90;;;;;;5095450;28;20612;-60
2022/12/09 07:51:49;;;;;;;44.45;20.33;;;-0.60;99.90;;;;;;5095447;28;20216;-60
2022/12/09 07:54:18;;;;;;;41.30;19.48;;;-0.60;99.90;;;;;;5095649;28;20315;-60
2022/12/09 07:56:45;;;;;;;37.47;19.83;;;-0.50;99.90;;;;;;5097228;28;20272;-61
2022/12/09 07:59:13;;;;;;;32.53;19.23;;;-0.40;99.90;;;;;;5098832;28;20199;-62
2022/12/09 08:01:40;;;;;;;44.20;22.33;;;-0.40;99.90;;;;;;5095804;28;20572;-61
2022/12/09 08:04:08;;;;;;;35.45;18.60;;;-0.30;99.90;;;;;;5097552;28;20200;-60
2022/12/09 08:06:36;;;;;;;41.55;19.10;;;-0.20;99.90;;;;;;5096673;28;20226;-63
2022/12/09 08:09:06;;;;;;;43.55;20.42;;;-0.20;99.90;;;;;;5095703;28;20443;-60
2022/12/09 08:11:34;;;;;;;39.13;21.92;;;-0.20;99.90;;;;;;5094801;28;20613;-61
2022/12/09 08:14:03;;;;;;;41.08;20.25;;;-0.10;99.90;;;;;;5094004;28;20226;-62
2022/12/09 08:16:29;;;;;;;37.75;19.88;;;-0.10;99.90;;;;;;5093637;28;20220;-60
2022/12/09 08:18:56;;;;;;;33.45;18.65;;;0.00;99.90;;;;;;5093755;28;20196;-60
2022/12/09 08:21:26;;;;;;;31.38;17.55;;;0.00;99.90;;;;;;5093560;28;20199;-61
2022/12/09 08:23:55;;;;;;;33.40;17.45;;;0.10;99.90;;;;;;5093796;28;20214;-61
2022/12/09 08:26:23;;;;;;;39.95;20.38;;;0.10;99.90;;;;;;5093554;28;20224;-62
2022/12/09 08:28:51;;;;;;;32.42;17.77;;;0.20;99.90;;;;;;5093067;28;20695;-62
2022/12/09 08:31:20;;;;;;;31.77;17.30;;;0.20;99.90;;;;;;5093295;28;20227;-61
2022/12/09 08:33:47;;;;;;;35.72;18.13;;;0.30;99.90;;;;;;5094078;28;20203;-61
2022/12/09 08:36:17;;;;;;;32.28;18.10;;;0.30;99.90;;;;;;5093630;28;20235;-61
2022/12/09 08:38:44;;;;;;;37.85;17.50;;;0.30;99.90;;;;;;5094793;28;20207;-61
2022/12/09 08:41:12;;;;;;;37.40;20.10;;;0.40;99.90;;;;;;5093419;28;20436;-61
2022/12/09 08:43:39;;;;;;;31.55;17.95;;;0.40;99.90;;;;;;5093550;28;20673;-62
2022/12/09 08:46:07;;;;;;;32.90;19.47;;;0.40;99.90;;;;;;5092519;28;20422;-61
2022/12/09 08:48:36;;;;;;;32.42;19.58;;;0.50;99.90;;;;;;5091835;28;20778;-62
2022/12/09 08:51:04;;;;;;;29.08;16.88;;;0.50;99.90;;;;;;5093815;28;20473;-62
2022/12/09 08:53:31;;;;;;;24.67;15.32;;;0.50;99.90;;;;;;5093895;28;20200;-61
2022/12/09 08:55:58;;;;;;;27.13;17.92;;;0.60;99.90;;;;;;5095609;28;20219;-61
2022/12/09 08:58:25;;;;;;;35.40;18.15;;;0.60;99.90;;;;;;5098676;28;20204;-61
2022/12/09 09:00:52;;;;;;;29.17;18.30;;;0.60;99.90;;;;;;5097168;28;20890;-61
2022/12/09 09:03:20;;;;;;;24.45;16.52;;;0.70;99.90;;;;;;5099859;28;20200;-64
2022/12/09 09:05:47;;;;;;;23.00;14.98;;;0.80;99.90;;;;;;5100137;28;20216;-61
2022/12/09 09:08:13;;;;;;;28.67;17.80;;;0.80;99.90;;;;;;5098321;28;20889;-63
2022/12/09 09:10:40;;;;;;;29.08;18.48;;;0.90;99.90;;;;;;5098396;28;20512;-62
2022/12/09 09:13:07;;;;;;;29.75;17.48;;;0.90;99.90;;;;;;5098193;28;20414;-61
2022/12/09 09:15:34;;;;;;;26.33;17.17;;;1.00;99.90;;;;;;5098410;28;20217;-62
2022/12/09 09:18:00;;;;;;;22.65;15.00;;;1.00;99.90;;;;;;5098582;28;20207;-63
2022/12/09 09:20:28;;;;;;;21.40;14.25;;;1.00;99.90;;;;;;5096889;28;20192;-63
2022/12/09 09:22:55;;;;;;;25.77;16.70;;;1.10;99.90;;;;;;5096224;28;20410;-60
2022/12/09 09:25:22;;;;;;;24.50;17.38;;;1.20;99.90;;;;;;5095761;28;20410;-62
2022/12/09 09:27:49;;;;;;;23.20;15.35;;;1.20;99.90;;;;;;5096246;28;20695;-61
2022/12/09 09:30:15;;;;;;;25.52;17.10;;;1.20;99.90;;;;;;5095271;28;20417;-61
2022/12/09 09:32:42;;;;;;;22.65;15.95;;;1.20;99.90;;;;;;5096539;28;20204;-62
2022/12/09 09:35:09;;;;;;;25.08;14.52;;;1.20;99.90;;;;;;5096301;28;20205;-63
2022/12/09 09:37:37;;;;;;;22.80;13.70;;;1.20;99.90;;;;;;5095700;28;20236;-62
2022/12/09 09:40:05;;;;;;;19.55;14.25;;;1.30;99.90;;;;;;5097002;28;20207;-62
2022/12/09 09:42:37;;;;;;;21.65;13.15;;;1.30;99.90;;;;;;5096699;28;20204;-62
2022/12/09 09:45:10;;;;;;;26.08;14.23;;;1.40;99.90;;;;;;5096594;28;20184;-62
2022/12/09 09:47:43;;;;;;;25.10;14.30;;;1.40;99.90;;;;;;5097258;28;20262;-62
2022/12/09 09:50:25;;;;;;;20.25;13.52;;;1.50;99.90;;;;;;5097157;28;20648;-63
2022/12/09 09:52:55;;;;;;;21.00;13.00;;;1.50;99.90;;;;;;5096915;28;20199;-62
2022/12/09 09:55:33;;;;;;;25.58;15.55;;;1.50;99.90;;;;;;5096964;28;20196;-62
2022/12/09 09:58:07;;;;;;;22.13;13.18;;;1.50;99.90;;;;;;5097226;28;20185;-62
2022/12/09 10:00:42;;;;;;;24.05;15.68;;;1.50;99.90;;;;;;5095821;28;20414;-62
2022/12/09 10:03:13;;;;;;;25.65;15.90;;;1.60;99.90;;;;;;5096310;28;20651;-62
2022/12/09 10:05:49;;;;;;;26.88;17.30;;;1.70;99.90;;;;;;5095278;28;20816;-62
2022/12/09 10:08:30;;;;;;;25.63;17.70;;;1.70;99.90;;;;;;5095379;28;20426;-62
2022/12/09 10:11:07;;;;;;;26.55;17.15;;;1.80;99.90;;;;;;5095226;28;20480;-62
2022/12/09 10:13:44;;;;;;;23.83;15.88;;;1.90;99.90;;;;;;5096382;28;20189;-63
2022/12/09 10:16:16;;;;;;;23.75;13.95;;;1.90;99.90;;;;;;5096413;28;20573;-62
2022/12/09 10:18:53;;;;;;;25.63;16.15;;;1.90;99.90;;;;;;5097344;28;20214;-63
2022/12/09 10:21:21;;;;;;;19.45;13.35;;;2.00;99.90;;;;;;5096576;28;20185;-64
2022/12/09 10:23:50;;;;;;;21.58;14.68;;;2.00;99.90;;;;;;5096518;28;20204;-63
2022/12/09 10:26:22;;;;;;;25.08;13.77;;;2.00;99.90;;;;;;5095775;28;20224;-62
2022/12/09 10:28:56;;;;;;;22.00;14.63;;;2.10;99.90;;;;;;5096172;28;20628;-62
2022/12/09 10:31:25;;;;;;;23.63;15.35;;;2.20;99.90;;;;;;5096442;28;20210;-63
2022/12/09 10:33:51;;;;;;;23.42;15.70;;;2.20;99.90;;;;;;5095944;28;20412;-63
2022/12/09 10:36:23;;;;;;;25.95;16.40;;;2.30;99.90;;;;;;5095766;28;20628;-63
2022/12/09 10:38:51;;;;;;;22.63;14.57;;;2.40;99.90;;;;;;5095945;28;20198;-62
2022/12/09 10:44:21;;;;;;;21.05;13.52;;;2.50;99.90;;;;;;5072557;28;20192;-62
2022/12/09 10:46:49;;;;;;;19.83;13.18;;;2.50;99.90;;;;;;5116266;22;20228;-63
2022/12/09 10:49:21;;;;;;;22.48;12.23;;;2.50;99.90;;;;;;5105092;28;20209;-63
2022/12/09 10:51:49;;;;;;;20.30;13.35;;;2.60;99.90;;;;;;5101863;28;20216;-64
2022/12/09 10:54:31;;;;;;;28.27;15.32;;;2.50;99.90;;;;;;5100872;28;20196;-62
2022/12/09 10:57:07;;;;;;;24.52;16.10;;;2.50;99.90;;;;;;5096773;28;20463;-64
2022/12/09 10:59:35;;;;;;;22.63;15.88;;;2.50;99.90;;;;;;5094473;28;20441;-65
2022/12/09 11:02:17;;;;;;;19.83;13.82;;;2.60;99.90;;;;;;5095125;28;20207;-62
2022/12/09 11:04:45;;;;;;;21.38;13.25;;;2.60;99.90;;;;;;5095026;28;20193;-62
2022/12/09 11:07:16;;;;;;;21.35;13.32;;;2.60;99.90;;;;;;5097690;28;20248;-63
2022/12/09 11:09:46;;;;;;;25.52;15.80;;;2.60;99.90;;;;;;5093911;28;20421;-63
2022/12/09 11:12:19;;;;;;;21.40;13.45;;;2.60;99.90;;;;;;5096007;28;20216;-63
2022/12/09 11:14:51;;;;;;;20.85;13.60;;;2.60;99.90;;;;;;5095933;28;20566;-62
2022/12/09 11:17:21;;;;;;;18.23;14.02;;;2.60;99.90;;;;;;5099461;28;20269;-63
2022/12/09 11:19:51;;;;;;;19.35;13.77;;;2.60;99.90;;;;;;5100351;28;20204;-65
2022/12/09 11:22:27;;;;;;;22.05;14.05;;;2.60;99.90;;;;;;5098718;28;20644;-63
2022/12/09 11:25:06;;;;;;;21.45;14.43;;;2.60;99.90;;;;;;5099053;28;20188;-63
2022/12/09 11:27:34;;;;;;;20.73;13.40;;;2.60;99.90;;;;;;5095729;28;20188;-63
2022/12/09 11:30:08;;;;;;;20.88;14.50;;;2.60;99.90;;;;;;5098947;28;20227;-64
2022/12/09 11:32:49;;;;;;;21.65;14.75;;;2.60;99.90;;;;;;5097002;28;20719;-67
2022/12/09 11:35:17;;;;;;;21.98;13.73;;;2.60;99.90;;;;;;5095707;28;20235;-65
2022/12/09 11:37:44;;;;;;;21.27;14.18;;;2.60;99.90;;;;;;5095406;28;20200;-64
2022/12/09 11:40:16;;;;;;;24.50;16.58;;;2.60;99.90;;;;;;5094518;28;20416;-61
2022/12/09 11:42:48;;;;;;;24.65;16.95;;;2.70;99.90;;;;;;5095230;28;20413;-67
2022/12/09 11:45:21;;;;;;;24.98;16.15;;;2.70;99.90;;;;;;5096009;28;20444;-64
2022/12/09 11:47:50;;;;;;;22.40;15.18;;;2.70;99.90;;;;;;5097407;28;20280;-65
2022/12/09 11:50:19;;;;;;;21.92;14.90;;;2.70;99.90;;;;;;5095727;28;20196;-62
2022/12/09 11:52:47;;;;;;;21.90;13.25;;;2.70;99.90;;;;;;5095586;28;20242;-64
2022/12/09 11:55:22;;;;;;;21.40;13.70;;;2.70;99.90;;;;;;5095335;28;20211;-67
2022/12/09 11:57:54;;;;;;;21.98;14.20;;;2.70;99.90;;;;;;5095673;28;20584;-62
2022/12/09 12:00:24;;;;;;;23.40;13.43;;;2.70;99.90;;;;;;5095919;28;20196;-64
2022/12/09 12:03:00;;;;;;;23.50;13.88;;;2.70;99.90;;;;;;5096880;28;20653;-61
2022/12/09 12:05:33;;;;;;;19.77;14.13;;;2.70;99.90;;;;;;5097460;28;20238;-63
2022/12/09 12:08:13;;;;;;;22.83;14.43;;;2.70;99.90;;;;;;5100362;28;20189;-64
2022/12/09 12:10:44;;;;;;;20.10;12.13;;;2.70;99.90;;;;;;5102532;28;20246;-62
2022/12/09 12:13:18;;;;;;;20.83;13.25;;;2.70;99.90;;;;;;5098093;28;20187;-60
2022/12/09 12:15:52;;;;;;;22.48;13.98;;;2.70;99.90;;;;;;5097346;28;20223;-62
2022/12/09 12:18:20;;;;;;;18.77;13.25;;;2.70;99.90;;;;;;5096294;28;20193;-61
2022/12/09 12:21:09;;;;;;;21.60;15.02;;;2.70;99.90;;;;;;5095478;28;20283;-63
2022/12/09 12:23:49;;;;;;;27.00;18.02;;;2.70;99.90;;;;;;5093859;28;20409;-62
2022/12/09 12:26:21;;;;;;;25.33;15.05;;;2.70;99.90;;;;;;5096274;28;20221;-61
2022/12/09 12:29:26;;;;;;;24.35;15.05;;;2.70;99.90;;;;;;5095262;28;20185;-61
2022/12/09 12:32:18;;;;;;;16.48;10.43;;;2.70;99.90;;;;;;5075454;28;20225;-62
2022/12/09 12:34:57;;;;;;;24.35;15.65;;;2.70;99.90;;;;;;5092459;28;20207;-60
2022/12/09 12:37:39;;;;;;;23.80;14.65;;;2.70;99.90;;;;;;5099636;28;20650;-63
2022/12/09 12:40:13;;;;;;;22.50;14.90;;;2.70;99.90;;;;;;5098866;28;20188;-61
2022/12/09 12:48:46;;;;;;;26.65;14.90;;;2.60;99.90;;;;;;5098762;28;20188;-63
2022/12/09 12:51:25;;;;;;;26.80;16.02;;;2.60;99.90;;;;;;5100358;28;20212;-62
2022/12/09 12:54:00;;;;;;;27.88;18.13;;;2.60;99.90;;;;;;5100367;28;20189;-63